ADDS METAR Data INFO
IDs: Format: Raw Decoded Include TAF

Data at: 1844 UTC 16 Dec 2017

KMSY 161753Z 05007KT 10SM BKN029 BKN085 OVC200 11/04 A3025 RMK AO2 SLP245 T01110044 10111 20078 58015
KMSY 161653Z 05008KT 10SM FEW030 SCT085 BKN200 11/04 A3028 RMK AO2 SLP255 T01110039
KMSY 161553Z 04006KT 10SM FEW085 SCT110 BKN200 10/03 A3030 RMK AO2 SLP263 T01000033
KMSY 161453Z 07006KT 10SM BKN085 BKN110 08/03 A3029 RMK AO2 SLP261 T00830028 51009
KMSY 161353Z 05006KT 10SM BKN110 08/03 A3029 RMK AO2 SLP259 T00830028
KMSY 161253Z 06007KT 10SM BKN100 08/02 A3027 RMK AO2 SLP254 T00780017
KMSY 161153Z 08007KT 10SM OVC090 08/02 A3027 RMK AO2 SLP252 T00780017 10083 20072 53006
KMSY 161053Z 06007KT 10SM BKN090 OVC110 08/02 A3025 RMK AO2 SLP245 T00780017
KMSY 160953Z 06004KT 10SM BKN100 08/01 A3026 RMK AO2 SLP248 T00780011
KMSY 160853Z 05007KT 10SM SCT100 08/02 A3025 RMK AO2 SLP246 T00780017 57004
KMSY 160753Z 03004KT 10SM FEW150 08/02 A3025 RMK AO2 SLP248 T00780022
KMSY 160653Z 03006KT 10SM SCT120 08/02 A3026 RMK AO2 SLP248 T00830017
KMSY 160553Z 03006KT 10SM FEW120 08/02 A3026 RMK AO2 SLP250 60000 T00830022 10094 20083 401280083 58002
KMSY 160453Z 02009KT 10SM OVC110 08/02 A3028 RMK AO2 SLP256 T00830017
KMSY 160353Z 02009KT 10SM OVC110 09/02 A3027 RMK AO2 SLP254 T00890017
KMSY 160253Z 03005KT 10SM OVC110 09/02 A3027 RMK AO2 SLP252 60000 T00890022 53012
KMSY 160153Z 01006KT 10SM FEW080 SCT110 OVC200 09/02 A3025 RMK AO2 RAE0057 SLP244 P0000 T00890022
KMSY 160053Z 02008KT 10SM -RA FEW080 SCT110 OVC200 09/02 A3022 RMK AO2 RAE03B45 SLP237 P0000 T00890022
KMSY 152353Z 02003KT 10SM -RA BKN100 09/03 A3023 RMK AO2 RAB52 SLP240 P0000 60000 T00940028 10094 20089 53006
KMSY 152253Z 01005KT 10SM BKN100 09/03 A3022 RMK AO2 SLP234 T00940028
KMSY 152153Z 35005KT 10SM BKN110 09/03 A3021 RMK AO2 RAB2054E03 SLP233 P0000 T00940028
KMSY 152053Z 36006KT 10SM FEW070 BKN110 09/03 A3021 RMK AO2 RAE16 SLP234 P0000 60000 T00940028 55005
KMSY 151953Z 35006KT 10SM -RA FEW065 SCT085 OVC110 09/04 A3021 RMK AO2 SLP232 P0000 T00890039
KMSY 151853Z 01008KT 10SM -RA FEW044 SCT090 OVC110 09/03 A3020 RMK AO2 SLP228 P0000 T00890028
KMSY 151753Z 35010KT 10SM -RA OVC100 09/04 A3023 RMK AO2 SLP239 P0000 60000 T00890039 10106 20089 50006
KMSY 151653Z 36010KT 10SM -RA OVC110 09/04 A3026 RMK AO2 SLP250 P0000 T00940039
KMSY 151553Z 35007KT 10SM -RA OVC110 09/05 A3025 RMK AO2 SLP247 P0000 T00940050
KMSY 151453Z 01008KT 10SM -RA OVC100 10/05 A3021 RMK AO2 SLP233 P0000 60000 T01000050 53038
KMSY 151353Z 01009KT 10SM -RA OVC100 10/05 A3016 RMK AO2 RAB11 SLP215 P0000 T01000050
KMSY 151253Z 01009KT 10SM BKN090 OVC120 10/06 A3013 RMK AO2 RAE31 SLP206 P0000 T01000056
KMSY 151153Z 36007KT 10SM -RA FEW050 BKN120 OVC200 11/07 A3010 RMK AO2 RAB49 SLP196 P0000 60000 T01060067 10128 20106 53017
KMSY 151053Z 01003KT 10SM FEW050 BKN110 OVC200 11/08 A3008 RMK AO2 RAB12E45 SLP187 P0000 T01110078
KMSY 150953Z 36007KT 10SM FEW050 OVC200 12/08 A3006 RMK AO2 SLP182 T01170083
KMSY 150853Z 34005KT 9SM FEW050 OVC200 12/10 A3005 RMK AO2 SLP179 T01170100 50001
KMSY 150753Z 00000KT 9SM SCT055 BKN200 11/10 A3005 RMK AO2 SLP179 T01060100
KMSY 150653Z 00000KT 9SM SCT065 BKN200 12/11 A3006 RMK AO2 SLP180 T01220106